sensor_id;sensor_type;location;lat;lon;timestamp;P1;durP1;ratioP1;P2;durP2;ratioP2
72813;SDS011;60945;48.516;-2.768;2023-04-24T00:00:57;6.45;;;2.42;;
72813;SDS011;60945;48.516;-2.768;2023-04-24T00:03:24;9.07;;;2.58;;
72813;SDS011;60945;48.516;-2.768;2023-04-24T00:05:53;5.35;;;2.50;;
72813;SDS011;60945;48.516;-2.768;2023-04-24T00:08:19;4.00;;;1.90;;
72813;SDS011;60945;48.516;-2.768;2023-04-24T00:10:46;6.25;;;1.80;;
72813;SDS011;60945;48.516;-2.768;2023-04-24T00:13:11;6.38;;;2.40;;
72813;SDS011;60945;48.516;-2.768;2023-04-24T00:15:37;6.05;;;2.20;;
72813;SDS011;60945;48.516;-2.768;2023-04-24T00:18:06;6.80;;;2.88;;
72813;SDS011;60945;48.516;-2.768;2023-04-24T00:20:31;6.47;;;2.90;;
72813;SDS011;60945;48.516;-2.768;2023-04-24T00:23:03;4.60;;;2.22;;
72813;SDS011;60945;48.516;-2.768;2023-04-24T00:25:28;6.05;;;2.20;;
72813;SDS011;60945;48.516;-2.768;2023-04-24T00:27:54;5.85;;;2.50;;
72813;SDS011;60945;48.516;-2.768;2023-04-24T00:30:20;6.53;;;2.08;;
72813;SDS011;60945;48.516;-2.768;2023-04-24T00:32:45;5.82;;;2.08;;
72813;SDS011;60945;48.516;-2.768;2023-04-24T00:35:11;4.90;;;2.50;;
72813;SDS011;60945;48.516;-2.768;2023-04-24T00:37:37;3.90;;;2.05;;
72813;SDS011;60945;48.516;-2.768;2023-04-24T00:40:02;7.32;;;2.05;;
72813;SDS011;60945;48.516;-2.768;2023-04-24T00:42:28;5.50;;;2.15;;
72813;SDS011;60945;48.516;-2.768;2023-04-24T00:44:55;3.80;;;1.73;;
72813;SDS011;60945;48.516;-2.768;2023-04-24T00:47:21;3.90;;;1.73;;
72813;SDS011;60945;48.516;-2.768;2023-04-24T00:49:47;5.25;;;2.58;;
72813;SDS011;60945;48.516;-2.768;2023-04-24T00:52:13;7.10;;;2.22;;
72813;SDS011;60945;48.516;-2.768;2023-04-24T00:54:42;4.97;;;1.90;;
72813;SDS011;60945;48.516;-2.768;2023-04-24T00:57:11;3.75;;;1.60;;
72813;SDS011;60945;48.516;-2.768;2023-04-24T00:59:39;5.57;;;1.90;;
72813;SDS011;60945;48.516;-2.768;2023-04-24T01:02:06;4.40;;;1.85;;
72813;SDS011;60945;48.516;-2.768;2023-04-24T01:04:33;4.82;;;1.70;;
72813;SDS011;60945;48.516;-2.768;2023-04-24T01:07:00;3.67;;;2.00;;
72813;SDS011;60945;48.516;-2.768;2023-04-24T01:09:26;5.75;;;2.00;;
72813;SDS011;60945;48.516;-2.768;2023-04-24T01:11:52;3.97;;;1.77;;
72813;SDS011;60945;48.516;-2.768;2023-04-24T01:14:18;3.85;;;1.70;;
72813;SDS011;60945;48.516;-2.768;2023-04-24T01:16:43;5.32;;;1.90;;
72813;SDS011;60945;48.516;-2.768;2023-04-24T01:19:09;5.63;;;2.20;;
72813;SDS011;60945;48.516;-2.768;2023-04-24T01:21:36;5.82;;;1.60;;
72813;SDS011;60945;48.516;-2.768;2023-04-24T01:24:03;4.35;;;1.67;;
72813;SDS011;60945;48.516;-2.768;2023-04-24T01:26:30;3.53;;;1.48;;
72813;SDS011;60945;48.516;-2.768;2023-04-24T01:28:55;6.55;;;2.13;;
72813;SDS011;60945;48.516;-2.768;2023-04-24T01:31:21;4.75;;;1.85;;
72813;SDS011;60945;48.516;-2.768;2023-04-24T01:33:47;3.72;;;1.98;;
72813;SDS011;60945;48.516;-2.768;2023-04-24T01:36:14;4.85;;;1.52;;
72813;SDS011;60945;48.516;-2.768;2023-04-24T01:38:41;6.55;;;1.75;;
72813;SDS011;60945;48.516;-2.768;2023-04-24T01:41:07;5.38;;;2.03;;
72813;SDS011;60945;48.516;-2.768;2023-04-24T01:43:33;5.43;;;1.70;;
72813;SDS011;60945;48.516;-2.768;2023-04-24T01:46:01;3.90;;;1.88;;
72813;SDS011;60945;48.516;-2.768;2023-04-24T01:48:27;5.40;;;1.90;;
72813;SDS011;60945;48.516;-2.768;2023-04-24T01:50:53;6.70;;;1.95;;
72813;SDS011;60945;48.516;-2.768;2023-04-24T01:53:19;5.68;;;2.10;;
72813;SDS011;60945;48.516;-2.768;2023-04-24T01:55:48;5.60;;;2.25;;
72813;SDS011;60945;48.516;-2.768;2023-04-24T01:58:13;6.70;;;2.13;;
72813;SDS011;60945;48.516;-2.768;2023-04-24T02:00:39;5.88;;;1.70;;
72813;SDS011;60945;48.516;-2.768;2023-04-24T02:03:05;3.33;;;1.92;;
72813;SDS011;60945;48.516;-2.768;2023-04-24T02:05:30;6.28;;;2.20;;
72813;SDS011;60945;48.516;-2.768;2023-04-24T02:07:56;4.25;;;2.20;;
72813;SDS011;60945;48.516;-2.768;2023-04-24T02:10:22;7.00;;;2.38;;
72813;SDS011;60945;48.516;-2.768;2023-04-24T02:12:47;5.00;;;2.00;;
72813;SDS011;60945;48.516;-2.768;2023-04-24T02:15:13;5.15;;;2.22;;
72813;SDS011;60945;48.516;-2.768;2023-04-24T02:17:39;4.68;;;1.70;;
72813;SDS011;60945;48.516;-2.768;2023-04-24T02:20:06;5.40;;;2.10;;
72813;SDS011;60945;48.516;-2.768;2023-04-24T02:22:35;6.50;;;2.08;;
72813;SDS011;60945;48.516;-2.768;2023-04-24T02:25:01;5.78;;;2.00;;
72813;SDS011;60945;48.516;-2.768;2023-04-24T02:27:27;4.05;;;1.80;;
72813;SDS011;60945;48.516;-2.768;2023-04-24T02:29:52;4.65;;;2.10;;
72813;SDS011;60945;48.516;-2.768;2023-04-24T02:32:21;4.18;;;1.85;;
72813;SDS011;60945;48.516;-2.768;2023-04-24T02:34:46;4.55;;;1.70;;
72813;SDS011;60945;48.516;-2.768;2023-04-24T02:37:12;5.10;;;2.05;;
72813;SDS011;60945;48.516;-2.768;2023-04-24T02:39:38;5.30;;;2.03;;
72813;SDS011;60945;48.516;-2.768;2023-04-24T02:42:03;5.35;;;1.83;;
72813;SDS011;60945;48.516;-2.768;2023-04-24T02:44:29;4.40;;;2.15;;
72813;SDS011;60945;48.516;-2.768;2023-04-24T02:46:55;6.47;;;2.20;;
72813;SDS011;60945;48.516;-2.768;2023-04-24T02:49:20;5.32;;;1.88;;
72813;SDS011;60945;48.516;-2.768;2023-04-24T02:51:46;7.70;;;2.67;;
72813;SDS011;60945;48.516;-2.768;2023-04-24T02:54:12;3.50;;;2.00;;
72813;SDS011;60945;48.516;-2.768;2023-04-24T02:56:37;5.15;;;1.80;;
72813;SDS011;60945;48.516;-2.768;2023-04-24T02:59:03;5.10;;;1.88;;
72813;SDS011;60945;48.516;-2.768;2023-04-24T03:01:29;2.67;;;1.70;;
72813;SDS011;60945;48.516;-2.768;2023-04-24T03:03:54;5.97;;;2.00;;
72813;SDS011;60945;48.516;-2.768;2023-04-24T03:06:20;6.97;;;2.17;;
72813;SDS011;60945;48.516;-2.768;2023-04-24T03:08:46;3.92;;;1.98;;
72813;SDS011;60945;48.516;-2.768;2023-04-24T03:11:12;6.40;;;2.05;;
72813;SDS011;60945;48.516;-2.768;2023-04-24T03:13:38;6.35;;;2.30;;
72813;SDS011;60945;48.516;-2.768;2023-04-24T03:16:03;4.20;;;2.10;;
72813;SDS011;60945;48.516;-2.768;2023-04-24T03:18:30;4.70;;;1.95;;
72813;SDS011;60945;48.516;-2.768;2023-04-24T03:20:56;5.78;;;2.40;;
72813;SDS011;60945;48.516;-2.768;2023-04-24T03:23:21;7.78;;;3.00;;
72813;SDS011;60945;48.516;-2.768;2023-04-24T03:25:47;6.25;;;2.50;;
72813;SDS011;60945;48.516;-2.768;2023-04-24T03:28:13;5.97;;;2.42;;
72813;SDS011;60945;48.516;-2.768;2023-04-24T03:30:39;6.80;;;2.58;;
72813;SDS011;60945;48.516;-2.768;2023-04-24T03:33:04;6.65;;;2.53;;
72813;SDS011;60945;48.516;-2.768;2023-04-24T03:35:30;4.32;;;2.38;;
72813;SDS011;60945;48.516;-2.768;2023-04-24T03:37:56;5.57;;;2.35;;
72813;SDS011;60945;48.516;-2.768;2023-04-24T03:40:21;5.25;;;2.38;;
72813;SDS011;60945;48.516;-2.768;2023-04-24T03:42:47;5.80;;;2.33;;
72813;SDS011;60945;48.516;-2.768;2023-04-24T03:45:13;4.95;;;2.25;;
72813;SDS011;60945;48.516;-2.768;2023-04-24T03:47:38;4.47;;;2.58;;
72813;SDS011;60945;48.516;-2.768;2023-04-24T03:50:04;4.20;;;2.42;;
72813;SDS011;60945;48.516;-2.768;2023-04-24T03:52:30;5.15;;;2.83;;
72813;SDS011;60945;48.516;-2.768;2023-04-24T03:54:56;4.80;;;2.53;;
72813;SDS011;60945;48.516;-2.768;2023-04-24T03:57:21;4.53;;;2.55;;
72813;SDS011;60945;48.516;-2.768;2023-04-24T03:59:47;6.07;;;2.90;;
72813;SDS011;60945;48.516;-2.768;2023-04-24T04:02:15;4.78;;;2.83;;
72813;SDS011;60945;48.516;-2.768;2023-04-24T04:04:41;5.35;;;2.63;;
72813;SDS011;60945;48.516;-2.768;2023-04-24T04:07:06;6.95;;;3.03;;
72813;SDS011;60945;48.516;-2.768;2023-04-24T04:09:34;6.10;;;2.35;;
72813;SDS011;60945;48.516;-2.768;2023-04-24T04:12:00;4.97;;;2.45;;
72813;SDS011;60945;48.516;-2.768;2023-04-24T04:14:26;5.50;;;2.63;;
72813;SDS011;60945;48.516;-2.768;2023-04-24T04:16:52;5.35;;;2.72;;
72813;SDS011;60945;48.516;-2.768;2023-04-24T04:19:18;7.57;;;2.88;;
72813;SDS011;60945;48.516;-2.768;2023-04-24T04:21:43;4.65;;;2.50;;
72813;SDS011;60945;48.516;-2.768;2023-04-24T04:24:10;5.65;;;2.47;;
72813;SDS011;60945;48.516;-2.768;2023-04-24T04:26:37;8.60;;;2.97;;
72813;SDS011;60945;48.516;-2.768;2023-04-24T04:29:03;7.30;;;2.65;;
72813;SDS011;60945;48.516;-2.768;2023-04-24T04:31:29;6.60;;;2.45;;
72813;SDS011;60945;48.516;-2.768;2023-04-24T04:33:55;8.80;;;3.10;;
72813;SDS011;60945;48.516;-2.768;2023-04-24T04:36:23;6.20;;;2.85;;
72813;SDS011;60945;48.516;-2.768;2023-04-24T04:38:49;6.82;;;2.72;;
72813;SDS011;60945;48.516;-2.768;2023-04-24T04:41:14;6.25;;;2.58;;
72813;SDS011;60945;48.516;-2.768;2023-04-24T04:43:41;6.00;;;2.63;;
72813;SDS011;60945;48.516;-2.768;2023-04-24T04:46:07;5.60;;;2.78;;
72813;SDS011;60945;48.516;-2.768;2023-04-24T04:48:35;6.22;;;2.70;;
72813;SDS011;60945;48.516;-2.768;2023-04-24T04:51:01;10.48;;;3.38;;
72813;SDS011;60945;48.516;-2.768;2023-04-24T04:53:26;6.53;;;2.88;;
72813;SDS011;60945;48.516;-2.768;2023-04-24T04:55:52;4.68;;;2.53;;
72813;SDS011;60945;48.516;-2.768;2023-04-24T04:58:18;5.90;;;2.70;;
72813;SDS011;60945;48.516;-2.768;2023-04-24T05:00:43;6.38;;;2.83;;
72813;SDS011;60945;48.516;-2.768;2023-04-24T05:03:09;6.85;;;3.08;;
72813;SDS011;60945;48.516;-2.768;2023-04-24T05:05:35;6.05;;;3.33;;
72813;SDS011;60945;48.516;-2.768;2023-04-24T05:08:00;4.72;;;2.83;;
72813;SDS011;60945;48.516;-2.768;2023-04-24T05:10:26;6.20;;;2.88;;
72813;SDS011;60945;48.516;-2.768;2023-04-24T05:12:52;6.25;;;2.88;;
72813;SDS011;60945;48.516;-2.768;2023-04-24T05:15:17;7.68;;;3.08;;
72813;SDS011;60945;48.516;-2.768;2023-04-24T05:17:43;6.53;;;2.85;;
72813;SDS011;60945;48.516;-2.768;2023-04-24T05:20:09;6.55;;;3.30;;
72813;SDS011;60945;48.516;-2.768;2023-04-24T05:22:34;5.05;;;2.97;;
72813;SDS011;60945;48.516;-2.768;2023-04-24T05:25:01;5.82;;;3.13;;
72813;SDS011;60945;48.516;-2.768;2023-04-24T05:27:27;7.30;;;3.35;;
72813;SDS011;60945;48.516;-2.768;2023-04-24T05:29:53;5.05;;;2.80;;
72813;SDS011;60945;48.516;-2.768;2023-04-24T05:32:18;5.75;;;2.70;;
72813;SDS011;60945;48.516;-2.768;2023-04-24T05:34:47;6.78;;;2.88;;
72813;SDS011;60945;48.516;-2.768;2023-04-24T05:37:13;6.78;;;3.30;;
72813;SDS011;60945;48.516;-2.768;2023-04-24T05:39:39;5.90;;;3.22;;
72813;SDS011;60945;48.516;-2.768;2023-04-24T05:42:06;6.07;;;3.20;;
72813;SDS011;60945;48.516;-2.768;2023-04-24T05:44:31;7.60;;;3.30;;
72813;SDS011;60945;48.516;-2.768;2023-04-24T05:46:57;8.25;;;3.65;;
72813;SDS011;60945;48.516;-2.768;2023-04-24T05:49:23;7.47;;;3.40;;
72813;SDS011;60945;48.516;-2.768;2023-04-24T05:51:48;7.30;;;3.28;;
72813;SDS011;60945;48.516;-2.768;2023-04-24T05:54:14;6.47;;;3.45;;
72813;SDS011;60945;48.516;-2.768;2023-04-24T05:56:40;6.90;;;3.88;;
72813;SDS011;60945;48.516;-2.768;2023-04-24T05:59:06;5.93;;;3.20;;
72813;SDS011;60945;48.516;-2.768;2023-04-24T06:01:32;7.35;;;3.58;;
72813;SDS011;60945;48.516;-2.768;2023-04-24T06:03:58;5.07;;;3.25;;
72813;SDS011;60945;48.516;-2.768;2023-04-24T06:06:27;5.88;;;3.17;;
72813;SDS011;60945;48.516;-2.768;2023-04-24T06:08:53;7.10;;;3.55;;
72813;SDS011;60945;48.516;-2.768;2023-04-24T06:11:19;7.85;;;4.07;;
72813;SDS011;60945;48.516;-2.768;2023-04-24T06:13:45;5.68;;;3.10;;
72813;SDS011;60945;48.516;-2.768;2023-04-24T06:16:11;6.85;;;3.50;;
72813;SDS011;60945;48.516;-2.768;2023-04-24T06:18:39;7.80;;;3.50;;
72813;SDS011;60945;48.516;-2.768;2023-04-24T06:21:05;5.55;;;3.22;;
72813;SDS011;60945;48.516;-2.768;2023-04-24T06:23:31;6.07;;;3.30;;
72813;SDS011;60945;48.516;-2.768;2023-04-24T06:25:58;8.18;;;3.47;;
72813;SDS011;60945;48.516;-2.768;2023-04-24T06:28:24;9.05;;;3.72;;
72813;SDS011;60945;48.516;-2.768;2023-04-24T06:30:50;7.30;;;3.83;;
72813;SDS011;60945;48.516;-2.768;2023-04-24T06:33:16;6.00;;;3.15;;
72813;SDS011;60945;48.516;-2.768;2023-04-24T06:35:42;8.73;;;3.65;;
72813;SDS011;60945;48.516;-2.768;2023-04-24T06:38:07;5.93;;;3.25;;
72813;SDS011;60945;48.516;-2.768;2023-04-24T06:40:33;5.55;;;3.72;;
72813;SDS011;60945;48.516;-2.768;2023-04-24T06:42:59;7.43;;;3.50;;
72813;SDS011;60945;48.516;-2.768;2023-04-24T06:45:27;8.18;;;3.40;;
72813;SDS011;60945;48.516;-2.768;2023-04-24T06:47:54;7.00;;;3.50;;
72813;SDS011;60945;48.516;-2.768;2023-04-24T06:50:19;7.15;;;3.30;;
72813;SDS011;60945;48.516;-2.768;2023-04-24T06:52:47;5.88;;;3.83;;
72813;SDS011;60945;48.516;-2.768;2023-04-24T06:55:13;6.43;;;3.58;;
72813;SDS011;60945;48.516;-2.768;2023-04-24T06:57:41;5.85;;;3.35;;
72813;SDS011;60945;48.516;-2.768;2023-04-24T07:00:07;7.05;;;3.20;;
72813;SDS011;60945;48.516;-2.768;2023-04-24T07:02:34;8.07;;;4.10;;
72813;SDS011;60945;48.516;-2.768;2023-04-24T07:05:00;6.80;;;3.65;;
72813;SDS011;60945;48.516;-2.768;2023-04-24T07:07:26;9.38;;;4.20;;
72813;SDS011;60945;48.516;-2.768;2023-04-24T07:09:52;6.57;;;3.65;;
72813;SDS011;60945;48.516;-2.768;2023-04-24T07:12:19;6.13;;;3.22;;
72813;SDS011;60945;48.516;-2.768;2023-04-24T07:14:46;5.75;;;3.25;;
72813;SDS011;60945;48.516;-2.768;2023-04-24T07:17:12;7.15;;;3.60;;
72813;SDS011;60945;48.516;-2.768;2023-04-24T07:19:38;5.22;;;3.55;;
72813;SDS011;60945;48.516;-2.768;2023-04-24T07:22:04;8.68;;;3.60;;
72813;SDS011;60945;48.516;-2.768;2023-04-24T07:24:30;9.88;;;3.58;;
72813;SDS011;60945;48.516;-2.768;2023-04-24T07:26:57;7.45;;;3.50;;
72813;SDS011;60945;48.516;-2.768;2023-04-24T07:29:23;5.50;;;3.10;;
72813;SDS011;60945;48.516;-2.768;2023-04-24T07:31:49;5.68;;;3.25;;
72813;SDS011;60945;48.516;-2.768;2023-04-24T07:34:15;6.97;;;3.55;;
72813;SDS011;60945;48.516;-2.768;2023-04-24T07:36:41;6.25;;;3.55;;
72813;SDS011;60945;48.516;-2.768;2023-04-24T07:39:07;10.07;;;3.70;;
72813;SDS011;60945;48.516;-2.768;2023-04-24T07:41:33;9.75;;;3.50;;
72813;SDS011;60945;48.516;-2.768;2023-04-24T07:43:59;9.18;;;3.35;;
72813;SDS011;60945;48.516;-2.768;2023-04-24T07:46:25;7.38;;;3.42;;
72813;SDS011;60945;48.516;-2.768;2023-04-24T07:48:52;8.80;;;3.78;;
72813;SDS011;60945;48.516;-2.768;2023-04-24T07:51:18;8.35;;;3.63;;
72813;SDS011;60945;48.516;-2.768;2023-04-24T07:53:43;8.52;;;3.22;;
72813;SDS011;60945;48.516;-2.768;2023-04-24T07:56:09;8.80;;;3.50;;
72813;SDS011;60945;48.516;-2.768;2023-04-24T07:58:35;9.95;;;3.92;;
72813;SDS011;60945;48.516;-2.768;2023-04-24T08:01:01;10.20;;;2.92;;
72813;SDS011;60945;48.516;-2.768;2023-04-24T08:03:26;7.13;;;3.20;;
72813;SDS011;60945;48.516;-2.768;2023-04-24T08:05:52;6.13;;;2.90;;
72813;SDS011;60945;48.516;-2.768;2023-04-24T08:08:19;6.03;;;3.33;;
72813;SDS011;60945;48.516;-2.768;2023-04-24T08:10:46;9.68;;;2.90;;
72813;SDS011;60945;48.516;-2.768;2023-04-24T08:13:13;6.65;;;3.05;;
72813;SDS011;60945;48.516;-2.768;2023-04-24T08:15:42;7.28;;;2.90;;
72813;SDS011;60945;48.516;-2.768;2023-04-24T08:18:12;6.22;;;2.65;;
72813;SDS011;60945;48.516;-2.768;2023-04-24T08:20:42;7.13;;;2.70;;
72813;SDS011;60945;48.516;-2.768;2023-04-24T08:23:12;8.57;;;3.08;;
72813;SDS011;60945;48.516;-2.768;2023-04-24T08:25:44;4.43;;;2.55;;
72813;SDS011;60945;48.516;-2.768;2023-04-24T08:28:12;8.00;;;2.90;;
72813;SDS011;60945;48.516;-2.768;2023-04-24T08:30:45;6.88;;;2.90;;
72813;SDS011;60945;48.516;-2.768;2023-04-24T08:33:11;7.25;;;2.72;;
72813;SDS011;60945;48.516;-2.768;2023-04-24T08:35:37;8.95;;;2.67;;
72813;SDS011;60945;48.516;-2.768;2023-04-24T08:38:04;9.82;;;3.33;;
72813;SDS011;60945;48.516;-2.768;2023-04-24T08:40:29;8.23;;;2.88;;
72813;SDS011;60945;48.516;-2.768;2023-04-24T08:42:59;6.72;;;2.67;;
72813;SDS011;60945;48.516;-2.768;2023-04-24T08:45:25;6.13;;;3.00;;
72813;SDS011;60945;48.516;-2.768;2023-04-24T08:47:54;6.47;;;2.90;;
72813;SDS011;60945;48.516;-2.768;2023-04-24T08:50:21;5.43;;;2.72;;
72813;SDS011;60945;48.516;-2.768;2023-04-24T08:52:49;5.93;;;2.45;;
72813;SDS011;60945;48.516;-2.768;2023-04-24T08:55:15;6.43;;;2.85;;
72813;SDS011;60945;48.516;-2.768;2023-04-24T08:57:44;6.20;;;2.50;;
72813;SDS011;60945;48.516;-2.768;2023-04-24T09:00:15;8.63;;;2.93;;
72813;SDS011;60945;48.516;-2.768;2023-04-24T09:02:44;6.50;;;3.10;;
72813;SDS011;60945;48.516;-2.768;2023-04-24T09:05:12;6.43;;;3.13;;
72813;SDS011;60945;48.516;-2.768;2023-04-24T09:07:39;8.10;;;2.80;;
72813;SDS011;60945;48.516;-2.768;2023-04-24T09:10:09;6.85;;;2.70;;
72813;SDS011;60945;48.516;-2.768;2023-04-24T09:12:35;7.40;;;2.72;;
72813;SDS011;60945;48.516;-2.768;2023-04-24T09:15:02;5.13;;;2.80;;
72813;SDS011;60945;48.516;-2.768;2023-04-24T09:17:30;5.43;;;2.70;;
72813;SDS011;60945;48.516;-2.768;2023-04-24T09:19:57;4.85;;;2.90;;
72813;SDS011;60945;48.516;-2.768;2023-04-24T09:22:22;7.70;;;2.95;;
72813;SDS011;60945;48.516;-2.768;2023-04-24T09:25:03;7.10;;;3.10;;
72813;SDS011;60945;48.516;-2.768;2023-04-24T09:27:31;7.40;;;2.72;;
72813;SDS011;60945;48.516;-2.768;2023-04-24T09:29:58;4.45;;;2.67;;
72813;SDS011;60945;48.516;-2.768;2023-04-24T09:32:25;6.32;;;2.83;;
72813;SDS011;60945;48.516;-2.768;2023-04-24T09:35:07;8.80;;;2.70;;
72813;SDS011;60945;48.516;-2.768;2023-04-24T09:37:46;5.82;;;2.60;;
72813;SDS011;60945;48.516;-2.768;2023-04-24T09:40:20;7.75;;;2.95;;
72813;SDS011;60945;48.516;-2.768;2023-04-24T09:42:53;4.50;;;2.60;;
72813;SDS011;60945;48.516;-2.768;2023-04-24T09:45:21;6.00;;;2.83;;
72813;SDS011;60945;48.516;-2.768;2023-04-24T09:47:52;7.40;;;2.70;;
72813;SDS011;60945;48.516;-2.768;2023-04-24T09:50:20;6.45;;;2.47;;
72813;SDS011;60945;48.516;-2.768;2023-04-24T09:52:47;8.38;;;2.60;;
72813;SDS011;60945;48.516;-2.768;2023-04-24T09:55:22;5.60;;;2.47;;
72813;SDS011;60945;48.516;-2.768;2023-04-24T09:57:51;5.18;;;2.33;;
72813;SDS011;60945;48.516;-2.768;2023-04-24T10:02:50;8.30;;;2.60;;
72813;SDS011;60945;48.516;-2.768;2023-04-24T10:05:19;4.85;;;2.20;;
72813;SDS011;60945;48.516;-2.768;2023-04-24T10:07:48;5.47;;;2.40;;
72813;SDS011;60945;48.516;-2.768;2023-04-24T10:10:14;7.15;;;2.25;;
72813;SDS011;60945;48.516;-2.768;2023-04-24T10:12:40;4.63;;;2.10;;
72813;SDS011;60945;48.516;-2.768;2023-04-24T10:15:07;4.82;;;2.40;;
72813;SDS011;60945;48.516;-2.768;2023-04-24T10:17:35;6.38;;;2.00;;
72813;SDS011;60945;48.516;-2.768;2023-04-24T10:20:01;5.57;;;2.38;;
72813;SDS011;60945;48.516;-2.768;2023-04-24T10:22:27;4.80;;;2.40;;
72813;SDS011;60945;48.516;-2.768;2023-04-24T10:24:55;6.15;;;2.60;;
72813;SDS011;60945;48.516;-2.768;2023-04-24T10:27:21;4.85;;;2.17;;
72813;SDS011;60945;48.516;-2.768;2023-04-24T10:29:49;5.78;;;2.28;;
72813;SDS011;60945;48.516;-2.768;2023-04-24T10:32:18;5.97;;;2.40;;
72813;SDS011;60945;48.516;-2.768;2023-04-24T10:34:43;6.28;;;2.60;;
72813;SDS011;60945;48.516;-2.768;2023-04-24T10:37:10;5.95;;;2.08;;
72813;SDS011;60945;48.516;-2.768;2023-04-24T10:39:36;5.15;;;2.65;;
72813;SDS011;60945;48.516;-2.768;2023-04-24T10:42:13;4.25;;;1.98;;
72813;SDS011;60945;48.516;-2.768;2023-04-24T10:44:40;5.18;;;2.10;;
72813;SDS011;60945;48.516;-2.768;2023-04-24T10:47:06;3.88;;;1.98;;
72813;SDS011;60945;48.516;-2.768;2023-04-24T10:49:39;4.80;;;2.08;;
72813;SDS011;60945;48.516;-2.768;2023-04-24T10:52:05;5.90;;;2.40;;
72813;SDS011;60945;48.516;-2.768;2023-04-24T11:02:45;5.60;;;2.28;;
72813;SDS011;60945;48.516;-2.768;2023-04-24T11:05:17;5.40;;;2.10;;
72813;SDS011;60945;48.516;-2.768;2023-04-24T11:10:45;6.25;;;2.28;;
72813;SDS011;60945;48.516;-2.768;2023-04-24T11:13:15;5.50;;;2.83;;
72813;SDS011;60945;48.516;-2.768;2023-04-24T11:15:42;6.28;;;2.10;;
72813;SDS011;60945;48.516;-2.768;2023-04-24T11:18:12;4.57;;;2.00;;
72813;SDS011;60945;48.516;-2.768;2023-04-24T11:20:43;7.90;;;2.10;;
72813;SDS011;60945;48.516;-2.768;2023-04-24T11:23:11;6.28;;;2.28;;
72813;SDS011;60945;48.516;-2.768;2023-04-24T11:25:38;4.95;;;2.25;;
72813;SDS011;60945;48.516;-2.768;2023-04-24T11:28:04;6.85;;;2.35;;
72813;SDS011;60945;48.516;-2.768;2023-04-24T11:30:31;6.72;;;2.00;;
72813;SDS011;60945;48.516;-2.768;2023-04-24T11:33:02;5.32;;;2.05;;
72813;SDS011;60945;48.516;-2.768;2023-04-24T11:35:29;5.35;;;2.40;;
72813;SDS011;60945;48.516;-2.768;2023-04-24T11:37:55;4.57;;;1.90;;
72813;SDS011;60945;48.516;-2.768;2023-04-24T11:40:21;4.90;;;2.10;;
72813;SDS011;60945;48.516;-2.768;2023-04-24T11:42:49;7.25;;;2.33;;
72813;SDS011;60945;48.516;-2.768;2023-04-24T11:47:46;6.27;;;2.80;;
72813;SDS011;60945;48.516;-2.768;2023-04-24T11:50:13;5.07;;;2.30;;
72813;SDS011;60945;48.516;-2.768;2023-04-24T11:52:44;4.93;;;2.03;;
72813;SDS011;60945;48.516;-2.768;2023-04-24T11:57:47;5.65;;;1.95;;
72813;SDS011;60945;48.516;-2.768;2023-04-24T12:00:16;4.88;;;2.00;;
72813;SDS011;60945;48.516;-2.768;2023-04-24T12:02:43;6.28;;;2.15;;
72813;SDS011;60945;48.516;-2.768;2023-04-24T12:05:09;4.22;;;2.10;;
72813;SDS011;60945;48.516;-2.768;2023-04-24T12:07:43;4.55;;;2.10;;
72813;SDS011;60945;48.516;-2.768;2023-04-24T12:10:09;5.97;;;2.50;;
72813;SDS011;60945;48.516;-2.768;2023-04-24T12:12:35;5.57;;;2.42;;
72813;SDS011;60945;48.516;-2.768;2023-04-24T12:15:01;6.13;;;2.40;;
72813;SDS011;60945;48.516;-2.768;2023-04-24T12:17:32;6.05;;;2.33;;
72813;SDS011;60945;48.516;-2.768;2023-04-24T12:19:59;5.65;;;2.45;;
72813;SDS011;60945;48.516;-2.768;2023-04-24T12:25:16;6.15;;;2.40;;
72813;SDS011;60945;48.516;-2.768;2023-04-24T12:27:44;5.93;;;2.40;;
72813;SDS011;60945;48.516;-2.768;2023-04-24T12:30:14;5.68;;;2.40;;
72813;SDS011;60945;48.516;-2.768;2023-04-24T12:32:44;7.32;;;2.25;;
72813;SDS011;60945;48.516;-2.768;2023-04-24T12:35:12;4.27;;;2.30;;
72813;SDS011;60945;48.516;-2.768;2023-04-24T12:37:38;5.80;;;2.20;;
72813;SDS011;60945;48.516;-2.768;2023-04-24T12:40:09;5.78;;;2.28;;
72813;SDS011;60945;48.516;-2.768;2023-04-24T12:42:37;5.65;;;2.08;;
72813;SDS011;60945;48.516;-2.768;2023-04-24T12:45:11;6.68;;;2.30;;
72813;SDS011;60945;48.516;-2.768;2023-04-24T12:47:38;3.83;;;2.05;;
72813;SDS011;60945;48.516;-2.768;2023-04-24T12:50:05;4.55;;;2.40;;
72813;SDS011;60945;48.516;-2.768;2023-04-24T12:52:35;7.20;;;1.98;;
72813;SDS011;60945;48.516;-2.768;2023-04-24T12:55:01;7.18;;;2.08;;
72813;SDS011;60945;48.516;-2.768;2023-04-24T12:57:28;7.20;;;2.30;;
72813;SDS011;60945;48.516;-2.768;2023-04-24T12:59:55;5.55;;;2.03;;
72813;SDS011;60945;48.516;-2.768;2023-04-24T13:02:22;6.18;;;2.20;;
72813;SDS011;60945;48.516;-2.768;2023-04-24T13:04:52;5.70;;;2.17;;
72813;SDS011;60945;48.516;-2.768;2023-04-24T13:07:19;4.80;;;2.15;;
72813;SDS011;60945;48.516;-2.768;2023-04-24T13:09:45;6.50;;;2.47;;
72813;SDS011;60945;48.516;-2.768;2023-04-24T13:12:12;4.40;;;2.22;;
72813;SDS011;60945;48.516;-2.768;2023-04-24T13:14:38;3.83;;;2.20;;
72813;SDS011;60945;48.516;-2.768;2023-04-24T13:17:04;4.78;;;2.50;;
72813;SDS011;60945;48.516;-2.768;2023-04-24T13:19:34;6.68;;;4.70;;
72813;SDS011;60945;48.516;-2.768;2023-04-24T13:22:04;6.03;;;3.78;;
72813;SDS011;60945;48.516;-2.768;2023-04-24T13:24:30;7.35;;;3.00;;
72813;SDS011;60945;48.516;-2.768;2023-04-24T13:26:57;5.82;;;2.72;;
72813;SDS011;60945;48.516;-2.768;2023-04-24T13:29:23;6.15;;;2.78;;
72813;SDS011;60945;48.516;-2.768;2023-04-24T13:31:52;7.03;;;2.95;;
72813;SDS011;60945;48.516;-2.768;2023-04-24T13:34:20;7.30;;;3.65;;
72813;SDS011;60945;48.516;-2.768;2023-04-24T13:36:46;9.32;;;3.70;;
72813;SDS011;60945;48.516;-2.768;2023-04-24T13:39:12;7.93;;;3.63;;
72813;SDS011;60945;48.516;-2.768;2023-04-24T13:41:38;7.63;;;3.47;;
72813;SDS011;60945;48.516;-2.768;2023-04-24T13:44:04;6.15;;;2.85;;
72813;SDS011;60945;48.516;-2.768;2023-04-24T13:46:31;8.30;;;3.28;;
72813;SDS011;60945;48.516;-2.768;2023-04-24T13:49:02;8.27;;;3.28;;
72813;SDS011;60945;48.516;-2.768;2023-04-24T13:51:28;8.63;;;3.28;;
72813;SDS011;60945;48.516;-2.768;2023-04-24T13:53:55;7.13;;;3.60;;
72813;SDS011;60945;48.516;-2.768;2023-04-24T13:56:21;9.43;;;3.20;;
72813;SDS011;60945;48.516;-2.768;2023-04-24T13:58:48;12.43;;;3.78;;
72813;SDS011;60945;48.516;-2.768;2023-04-24T14:01:15;8.40;;;3.38;;
72813;SDS011;60945;48.516;-2.768;2023-04-24T14:03:41;11.02;;;3.40;;
72813;SDS011;60945;48.516;-2.768;2023-04-24T14:06:10;10.68;;;3.58;;
72813;SDS011;60945;48.516;-2.768;2023-04-24T14:08:35;8.18;;;3.08;;
72813;SDS011;60945;48.516;-2.768;2023-04-24T14:11:01;7.22;;;3.20;;
72813;SDS011;60945;48.516;-2.768;2023-04-24T14:13:27;9.77;;;3.45;;
72813;SDS011;60945;48.516;-2.768;2023-04-24T14:15:56;10.13;;;3.25;;
72813;SDS011;60945;48.516;-2.768;2023-04-24T14:18:23;7.72;;;3.53;;
72813;SDS011;60945;48.516;-2.768;2023-04-24T14:20:48;6.97;;;2.80;;
72813;SDS011;60945;48.516;-2.768;2023-04-24T14:23:17;11.07;;;3.78;;
72813;SDS011;60945;48.516;-2.768;2023-04-24T14:25:43;6.88;;;2.92;;
72813;SDS011;60945;48.516;-2.768;2023-04-24T14:28:09;7.25;;;3.42;;
72813;SDS011;60945;48.516;-2.768;2023-04-24T14:30:35;6.50;;;3.10;;
72813;SDS011;60945;48.516;-2.768;2023-04-24T14:33:02;6.70;;;2.85;;
72813;SDS011;60945;48.516;-2.768;2023-04-24T14:35:29;7.15;;;3.00;;
72813;SDS011;60945;48.516;-2.768;2023-04-24T14:37:56;7.75;;;3.33;;
72813;SDS011;60945;48.516;-2.768;2023-04-24T14:40:22;6.18;;;2.80;;
72813;SDS011;60945;48.516;-2.768;2023-04-24T14:42:47;6.95;;;2.78;;
72813;SDS011;60945;48.516;-2.768;2023-04-24T14:45:13;6.53;;;2.83;;
72813;SDS011;60945;48.516;-2.768;2023-04-24T14:47:39;8.20;;;2.95;;
72813;SDS011;60945;48.516;-2.768;2023-04-24T14:50:05;8.20;;;3.03;;
72813;SDS011;60945;48.516;-2.768;2023-04-24T14:52:33;5.72;;;3.08;;